createdAt,value
2018-12-27T00:00:41.162Z,3.0
2018-12-27T00:01:42.531Z,3.0
2018-12-27T00:02:43.911Z,2.9
2018-12-27T00:03:45.293Z,2.9
2018-12-27T00:04:46.671Z,2.9
2018-12-27T00:05:48.055Z,2.9
2018-12-27T00:06:49.435Z,2.9
2018-12-27T00:07:50.815Z,2.9
2018-12-27T00:08:52.192Z,2.9
2018-12-27T00:09:53.570Z,2.9
2018-12-27T00:10:54.950Z,3.0
2018-12-27T00:11:56.329Z,3.1
2018-12-27T00:12:57.704Z,2.9
2018-12-27T00:13:59.080Z,3.0
2018-12-27T00:15:00.465Z,3.0
2018-12-27T00:16:01.841Z,3.0
2018-12-27T00:17:03.219Z,3.0
2018-12-27T00:18:04.595Z,2.9
2018-12-27T00:19:05.978Z,3.0
2018-12-27T00:20:07.358Z,2.9
2018-12-27T00:21:08.738Z,2.9
2018-12-27T00:22:10.119Z,3.0
2018-12-27T00:23:11.498Z,3.0
2018-12-27T00:24:12.876Z,3.1
2018-12-27T00:25:14.251Z,3.0
2018-12-27T00:26:15.632Z,3.0
2018-12-27T00:27:17.005Z,3.0
2018-12-27T00:28:18.381Z,3.0
2018-12-27T00:29:19.756Z,3.0
2018-12-27T00:30:21.136Z,3.0
2018-12-27T00:31:22.512Z,3.0
2018-12-27T00:32:23.890Z,3.0
2018-12-27T00:33:25.341Z,2.9
2018-12-27T00:34:26.761Z,3.0
2018-12-27T00:35:28.143Z,3.0
2018-12-27T00:36:29.522Z,3.0
2018-12-27T00:37:30.899Z,3.0
2018-12-27T00:38:32.276Z,3.0
2018-12-27T00:39:33.656Z,3.1
2018-12-27T00:40:35.033Z,3.1
2018-12-27T00:41:36.411Z,3.1
2018-12-27T00:42:37.785Z,3.1
2018-12-27T00:43:39.165Z,3.1
2018-12-27T00:44:40.542Z,3.2
2018-12-27T00:45:41.913Z,3.1
2018-12-27T00:46:43.288Z,3.1
2018-12-27T00:47:44.668Z,3.1
2018-12-27T00:48:46.049Z,3.1
2018-12-27T00:49:47.431Z,3.1
2018-12-27T00:50:48.811Z,3.2
2018-12-27T00:51:50.184Z,3.2
2018-12-27T00:52:51.560Z,3.2
2018-12-27T00:53:52.942Z,3.2
2018-12-27T00:54:54.316Z,3.2
2018-12-27T00:55:55.692Z,3.2
2018-12-27T00:56:57.076Z,3.1
2018-12-27T00:57:58.456Z,3.2
2018-12-27T00:58:59.831Z,3.2
2018-12-27T01:00:01.206Z,3.2
2018-12-27T01:01:02.586Z,3.2
2018-12-27T01:02:03.962Z,3.2
2018-12-27T01:03:11.177Z,3.2
2018-12-27T01:04:06.685Z,3.2
2018-12-27T01:05:08.065Z,3.2
2018-12-27T01:06:09.440Z,3.2
2018-12-27T01:07:10.815Z,3.2
2018-12-27T01:08:12.192Z,3.2
2018-12-27T01:09:13.571Z,3.2
2018-12-27T01:10:14.948Z,3.1
2018-12-27T01:11:16.331Z,3.2
2018-12-27T01:12:17.709Z,3.2
2018-12-27T01:13:19.085Z,3.2
2018-12-27T01:14:20.462Z,3.1
2018-12-27T01:15:21.839Z,3.2
2018-12-27T01:16:23.220Z,3.2
2018-12-27T01:17:24.606Z,3.2
2018-12-27T01:18:25.985Z,3.2
2018-12-27T01:19:27.366Z,3.2
2018-12-27T01:20:28.745Z,3.1
2018-12-27T01:21:30.119Z,3.1
2018-12-27T01:22:31.495Z,3.0
2018-12-27T01:23:32.920Z,3.0
2018-12-27T01:24:34.350Z,3.1
2018-12-27T01:25:35.770Z,3.1
2018-12-27T01:26:37.159Z,3.0
2018-12-27T01:27:38.529Z,3.1
2018-12-27T01:28:39.910Z,3.0
2018-12-27T01:29:41.287Z,2.9
2018-12-27T01:30:42.667Z,3.0
2018-12-27T01:31:50.457Z,3.0
2018-12-27T01:32:45.391Z,3.0
2018-12-27T01:33:46.793Z,3.1
2018-12-27T01:34:48.171Z,3.0
2018-12-27T01:35:49.551Z,3.1
2018-12-27T01:36:50.926Z,3.0
2018-12-27T01:37:52.303Z,3.1
2018-12-27T01:38:53.682Z,3.0
2018-12-27T01:39:55.064Z,3.0
2018-12-27T01:40:56.490Z,3.1
2018-12-27T01:41:57.867Z,3.1
2018-12-27T01:42:59.245Z,3.0
2018-12-27T01:44:00.622Z,3.1
2018-12-27T01:45:02.065Z,3.0
2018-12-27T01:46:03.446Z,3.1
2018-12-27T01:47:04.823Z,3.1
2018-12-27T01:48:06.202Z,3.1
2018-12-27T01:49:07.576Z,3.1
2018-12-27T01:50:08.954Z,3.1
2018-12-27T01:51:10.330Z,3.0
2018-12-27T01:52:11.707Z,3.0
2018-12-27T01:53:13.125Z,3.0
2018-12-27T01:54:14.504Z,3.0
2018-12-27T01:55:15.889Z,3.0
2018-12-27T01:56:17.262Z,3.1
2018-12-27T01:57:18.640Z,3.0
2018-12-27T01:58:20.015Z,3.0
2018-12-27T01:59:21.395Z,3.0
2018-12-27T02:00:22.770Z,3.1
2018-12-27T02:01:24.215Z,3.0
2018-12-27T02:02:25.594Z,3.0
2018-12-27T02:03:26.968Z,3.0
2018-12-27T02:04:28.348Z,2.9
2018-12-27T02:05:29.729Z,3.0
2018-12-27T02:06:31.108Z,3.0
2018-12-27T02:07:32.486Z,2.9
2018-12-27T02:08:33.865Z,2.9
2018-12-27T02:09:35.246Z,2.9
2018-12-27T02:10:36.622Z,2.9
2018-12-27T02:11:37.996Z,2.9
2018-12-27T02:12:39.373Z,3.0
2018-12-27T02:13:40.756Z,2.9
2018-12-27T02:14:42.191Z,2.8
2018-12-27T02:15:43.596Z,2.9
2018-12-27T02:16:44.976Z,2.8
2018-12-27T02:17:46.353Z,2.8
2018-12-27T02:18:47.731Z,2.9
2018-12-27T02:19:49.109Z,2.9
2018-12-27T02:20:50.488Z,2.8
2018-12-27T02:21:51.869Z,2.8
2018-12-27T02:22:53.246Z,2.8
2018-12-27T02:23:54.630Z,2.8
2018-12-27T02:24:56.005Z,2.8
2018-12-27T02:25:57.386Z,2.8
2018-12-27T02:26:58.765Z,2.8
2018-12-27T02:28:00.143Z,2.8
2018-12-27T02:29:01.524Z,2.8
2018-12-27T02:30:02.904Z,2.7
2018-12-27T02:31:04.291Z,2.8
2018-12-27T02:32:05.665Z,2.8
2018-12-27T02:33:07.049Z,2.8
2018-12-27T02:34:08.429Z,2.8
2018-12-27T02:35:09.809Z,2.8
2018-12-27T02:36:11.188Z,2.7
2018-12-27T02:37:12.567Z,2.7
2018-12-27T02:38:13.945Z,2.8
2018-12-27T02:39:15.323Z,2.8
2018-12-27T02:40:16.697Z,2.7
2018-12-27T02:41:18.073Z,2.8
2018-12-27T02:42:19.454Z,2.8
2018-12-27T02:43:20.836Z,2.8
2018-12-27T02:44:22.217Z,2.8
2018-12-27T02:45:23.596Z,2.7
2018-12-27T02:46:24.972Z,2.8
2018-12-27T02:47:26.345Z,2.8
2018-12-27T02:48:27.720Z,2.8
2018-12-27T02:49:29.099Z,2.8
2018-12-27T02:50:30.474Z,2.7
2018-12-27T02:51:31.854Z,2.7
2018-12-27T02:52:33.236Z,2.7
2018-12-27T02:53:34.618Z,2.6
2018-12-27T02:54:35.998Z,2.6
2018-12-27T02:55:37.385Z,2.6
2018-12-27T02:56:38.750Z,2.6
2018-12-27T02:57:40.126Z,2.6
2018-12-27T02:58:41.508Z,2.6
2018-12-27T02:59:42.887Z,2.8
2018-12-27T03:00:44.267Z,2.6
2018-12-27T03:01:45.644Z,2.6
2018-12-27T03:02:47.028Z,2.6
2018-12-27T03:03:48.401Z,2.5
2018-12-27T03:04:49.824Z,2.5
2018-12-27T03:05:51.304Z,2.5
2018-12-27T03:06:52.683Z,2.6
2018-12-27T03:07:54.057Z,2.7
2018-12-27T03:08:55.435Z,2.6
2018-12-27T03:09:56.809Z,2.5
2018-12-27T03:10:58.186Z,2.6
2018-12-27T03:11:59.585Z,2.5
2018-12-27T03:13:00.943Z,2.6
2018-12-27T03:14:02.322Z,2.6
2018-12-27T03:15:03.709Z,2.6
2018-12-27T03:16:05.072Z,2.5
2018-12-27T03:17:06.445Z,2.5
2018-12-27T03:18:07.820Z,2.4
2018-12-27T03:19:09.200Z,2.4
2018-12-27T03:20:10.580Z,2.4
2018-12-27T03:21:11.961Z,2.4
2018-12-27T03:22:13.337Z,2.3
2018-12-27T03:23:14.713Z,2.4
2018-12-27T03:24:16.088Z,2.3
2018-12-27T03:25:17.471Z,2.3
2018-12-27T03:26:18.849Z,2.3
2018-12-27T03:27:20.225Z,2.4
2018-12-27T03:28:21.602Z,2.4
2018-12-27T03:29:22.977Z,2.4
2018-12-27T03:30:24.357Z,2.4
2018-12-27T03:31:25.731Z,2.3
2018-12-27T03:32:27.113Z,2.3
2018-12-27T03:33:28.498Z,2.4
2018-12-27T03:34:29.874Z,2.3
2018-12-27T03:35:31.251Z,2.3
2018-12-27T03:36:32.632Z,2.3
2018-12-27T03:37:34.003Z,2.3
2018-12-27T03:38:35.384Z,2.2
2018-12-27T03:39:36.762Z,2.3
2018-12-27T03:40:38.140Z,2.2
2018-12-27T03:41:39.515Z,2.1
2018-12-27T03:42:40.896Z,2.2
2018-12-27T03:43:42.269Z,2.2
2018-12-27T03:44:43.648Z,2.1
2018-12-27T03:45:45.019Z,2.1
2018-12-27T03:46:46.413Z,2.1
2018-12-27T03:47:47.792Z,2.1
2018-12-27T03:48:49.169Z,2.1
2018-12-27T03:49:50.566Z,2.0
2018-12-27T03:50:51.927Z,2.0
2018-12-27T03:51:53.304Z,2.0
2018-12-27T03:52:54.684Z,2.1
2018-12-27T03:53:56.060Z,2.0
2018-12-27T03:54:57.437Z,2.0
2018-12-27T03:55:58.944Z,2.1
2018-12-27T03:57:00.238Z,2.1
2018-12-27T03:58:01.616Z,2.1
2018-12-27T03:59:02.990Z,2.0
2018-12-27T04:00:04.372Z,2.0
2018-12-27T04:01:05.746Z,2.0
2018-12-27T04:02:07.129Z,2.1
2018-12-27T04:03:08.507Z,2.1
2018-12-27T04:04:09.881Z,2.1
2018-12-27T04:05:11.260Z,2.1
2018-12-27T04:06:12.637Z,2.1
2018-12-27T04:07:14.013Z,2.1
2018-12-27T04:08:15.388Z,2.1
2018-12-27T04:09:16.768Z,2.1
2018-12-27T04:10:18.146Z,2.0
2018-12-27T04:11:19.537Z,1.9
2018-12-27T04:12:20.915Z,2.0
2018-12-27T04:13:22.290Z,2.0
2018-12-27T04:14:23.671Z,2.0
2018-12-27T04:15:25.046Z,2.0
2018-12-27T04:16:26.426Z,2.0
2018-12-27T04:17:27.808Z,2.0
2018-12-27T04:18:29.185Z,2.0
2018-12-27T04:19:30.560Z,2.1
2018-12-27T04:20:31.940Z,2.0
2018-12-27T04:21:33.359Z,2.1
2018-12-27T04:22:34.738Z,2.0
2018-12-27T04:23:36.106Z,2.0
2018-12-27T04:24:37.486Z,2.1
2018-12-27T04:25:38.864Z,2.0
2018-12-27T04:26:40.242Z,2.0
2018-12-27T04:27:41.620Z,2.0
2018-12-27T04:28:42.998Z,2.1
2018-12-27T04:29:44.450Z,2.1
2018-12-27T04:30:45.716Z,2.1
2018-12-27T04:31:47.093Z,2.1
2018-12-27T04:32:48.520Z,2.1
2018-12-27T04:33:49.898Z,2.2
2018-12-27T04:34:51.275Z,2.1
2018-12-27T04:35:52.654Z,2.2
2018-12-27T04:36:54.031Z,2.1
2018-12-27T04:37:55.407Z,2.1
2018-12-27T04:38:56.788Z,2.1
2018-12-27T04:39:58.167Z,2.1
2018-12-27T04:40:59.545Z,2.0
2018-12-27T04:42:00.921Z,2.0
2018-12-27T04:43:02.299Z,2.0
2018-12-27T04:44:03.694Z,2.0
2018-12-27T04:45:05.063Z,1.9
2018-12-27T04:46:06.451Z,2.0
2018-12-27T04:47:07.954Z,1.9
2018-12-27T04:48:09.326Z,1.9
2018-12-27T04:49:10.703Z,1.9
2018-12-27T04:50:12.092Z,1.9
2018-12-27T04:51:13.468Z,1.8
2018-12-27T04:52:14.844Z,1.9
2018-12-27T04:53:16.226Z,1.9
2018-12-27T04:54:17.607Z,1.8
2018-12-27T04:55:18.981Z,1.9
2018-12-27T04:56:20.358Z,1.8
2018-12-27T04:57:21.734Z,1.8
2018-12-27T04:58:23.114Z,1.7
2018-12-27T04:59:24.515Z,1.7
2018-12-27T05:00:25.869Z,1.7
2018-12-27T05:01:27.254Z,1.7
2018-12-27T05:02:28.626Z,1.6
2018-12-27T05:03:30.002Z,1.7
2018-12-27T05:04:31.382Z,1.6
2018-12-27T05:05:32.758Z,1.7
2018-12-27T05:06:34.228Z,1.7
2018-12-27T05:07:35.475Z,1.7
2018-12-27T05:08:36.874Z,1.7
2018-12-27T05:09:38.269Z,1.7
2018-12-27T05:10:39.632Z,1.7
2018-12-27T05:11:41.011Z,1.6
2018-12-27T05:12:42.394Z,1.7
2018-12-27T05:13:43.772Z,1.7
2018-12-27T05:14:45.157Z,1.7
2018-12-27T05:15:46.534Z,1.8
2018-12-27T05:16:48.034Z,1.6
2018-12-27T05:17:49.252Z,1.7
2018-12-27T05:18:50.625Z,1.6
2018-12-27T05:19:52.003Z,1.7
2018-12-27T05:20:53.395Z,1.7
2018-12-27T05:21:54.772Z,1.7
2018-12-27T05:22:56.151Z,1.7
2018-12-27T05:23:57.523Z,1.7
2018-12-27T05:24:58.902Z,1.7
2018-12-27T05:26:00.277Z,1.6
2018-12-27T05:27:01.655Z,1.7
2018-12-27T05:28:03.030Z,1.7
2018-12-27T05:29:04.408Z,1.5
2018-12-27T05:30:05.784Z,1.5
2018-12-27T05:31:07.161Z,1.6
2018-12-27T05:32:08.535Z,1.6
2018-12-27T05:33:09.911Z,1.5
2018-12-27T05:34:11.297Z,1.6
2018-12-27T05:35:12.668Z,1.6
2018-12-27T05:36:14.047Z,1.6
2018-12-27T05:37:15.480Z,1.5
2018-12-27T05:38:16.902Z,1.5
2018-12-27T05:39:18.263Z,1.6
2018-12-27T05:40:19.640Z,1.5
2018-12-27T05:41:21.021Z,1.6
2018-12-27T05:42:22.477Z,1.5
2018-12-27T05:43:23.739Z,1.5
2018-12-27T05:44:25.114Z,1.5
2018-12-27T05:45:26.489Z,1.4
2018-12-27T05:46:27.865Z,1.5
2018-12-27T05:47:29.243Z,1.4
2018-12-27T05:48:30.622Z,1.4
2018-12-27T05:49:31.999Z,1.4
2018-12-27T05:50:33.377Z,1.4
2018-12-27T05:51:34.756Z,1.5
2018-12-27T05:52:36.131Z,1.3
2018-12-27T05:53:37.505Z,1.3
2018-12-27T05:54:38.882Z,1.3
2018-12-27T05:55:40.260Z,1.3
2018-12-27T05:56:41.637Z,1.3
2018-12-27T05:57:43.016Z,1.3
2018-12-27T05:58:44.393Z,1.3
2018-12-27T05:59:45.780Z,1.3
2018-12-27T06:00:47.156Z,1.3
2018-12-27T06:01:48.531Z,1.3
2018-12-27T06:02:49.908Z,1.3
2018-12-27T06:03:51.286Z,1.3
2018-12-27T06:04:52.661Z,1.3
2018-12-27T06:05:54.037Z,1.3
2018-12-27T06:06:55.377Z,1.2
2018-12-27T06:07:56.751Z,1.3
2018-12-27T06:08:58.127Z,1.3
2018-12-27T06:09:59.503Z,1.4
2018-12-27T06:11:00.881Z,1.3
2018-12-27T06:12:02.264Z,1.3
2018-12-27T06:13:03.641Z,1.4
2018-12-27T06:14:04.984Z,1.3
2018-12-27T06:15:06.360Z,1.4
2018-12-27T06:16:07.738Z,1.5
2018-12-27T06:17:09.117Z,1.4
2018-12-27T06:18:10.500Z,1.5
2018-12-27T06:19:11.875Z,1.4
2018-12-27T06:20:13.252Z,1.4
2018-12-27T06:21:14.626Z,1.4
2018-12-27T06:22:16.010Z,1.5
2018-12-27T06:23:17.387Z,1.5
2018-12-27T06:24:18.760Z,1.5
2018-12-27T06:25:20.236Z,1.5
2018-12-27T06:26:21.476Z,1.4
2018-12-27T06:27:22.852Z,1.4
2018-12-27T06:28:24.346Z,1.4
2018-12-27T06:29:25.724Z,1.4
2018-12-27T06:30:27.103Z,1.5
2018-12-27T06:31:28.475Z,1.5
2018-12-27T06:32:29.853Z,1.5
2018-12-27T06:33:31.231Z,1.5
2018-12-27T06:34:32.611Z,1.5
2018-12-27T06:35:33.985Z,1.5
2018-12-27T06:36:35.360Z,1.5
2018-12-27T06:37:36.737Z,1.5
2018-12-27T06:38:38.212Z,1.5
2018-12-27T06:39:39.591Z,1.6
2018-12-27T06:40:40.970Z,1.5
2018-12-27T06:41:42.353Z,1.6
2018-12-27T06:42:43.727Z,1.6
2018-12-27T06:43:45.104Z,1.5
2018-12-27T06:44:46.483Z,1.5
2018-12-27T06:45:47.864Z,1.6
2018-12-27T06:46:49.240Z,1.6
2018-12-27T06:47:50.618Z,1.5
2018-12-27T06:48:51.999Z,1.5
2018-12-27T06:49:53.369Z,1.6
2018-12-27T06:50:54.743Z,1.5
2018-12-27T06:51:56.119Z,1.5
2018-12-27T06:52:57.494Z,1.5
2018-12-27T06:53:58.915Z,1.4
2018-12-27T06:55:00.299Z,1.4
2018-12-27T06:56:01.680Z,1.4
2018-12-27T06:57:03.057Z,1.5
2018-12-27T06:58:04.434Z,1.5
2018-12-27T06:59:05.809Z,1.4
2018-12-27T07:00:07.212Z,1.4
2018-12-27T07:01:08.588Z,1.4
2018-12-27T07:02:09.963Z,1.3
2018-12-27T07:03:11.342Z,1.4
2018-12-27T07:04:12.712Z,1.3
2018-12-27T07:05:15.485Z,1.3
2018-12-27T07:06:15.430Z,1.4
2018-12-27T07:07:16.806Z,1.5
2018-12-27T07:08:18.187Z,1.4
2018-12-27T07:09:19.562Z,1.3
2018-12-27T07:10:20.942Z,1.3
2018-12-27T07:11:22.318Z,1.4
2018-12-27T07:12:23.692Z,1.4
2018-12-27T07:13:25.074Z,1.4
2018-12-27T07:14:26.457Z,1.3
2018-12-27T07:15:27.832Z,1.2
2018-12-27T07:16:29.212Z,1.4
2018-12-27T07:17:30.592Z,1.4
2018-12-27T07:18:31.986Z,1.3
2018-12-27T07:19:33.443Z,1.4
2018-12-27T07:20:34.815Z,1.4
2018-12-27T07:21:36.194Z,1.3
2018-12-27T07:22:37.580Z,1.2
2018-12-27T07:23:38.958Z,1.3
2018-12-27T07:24:40.335Z,1.2
2018-12-27T07:25:41.713Z,1.3
2018-12-27T07:26:44.424Z,1.3
2018-12-27T07:27:44.434Z,1.3
2018-12-27T07:28:45.814Z,1.3
2018-12-27T07:29:47.191Z,1.4
2018-12-27T07:30:48.574Z,1.4
2018-12-27T07:31:49.952Z,1.5
2018-12-27T07:32:52.014Z,1.5
2018-12-27T07:33:53.389Z,1.6
2018-12-27T07:34:56.686Z,1.5
2018-12-27T07:35:56.123Z,1.5
2018-12-27T07:36:57.497Z,1.6
2018-12-27T07:37:58.877Z,1.6
2018-12-27T07:39:00.297Z,1.7
2018-12-27T07:40:01.676Z,1.7
2018-12-27T07:41:03.054Z,1.7
2018-12-27T07:42:04.435Z,1.6
2018-12-27T07:43:05.819Z,1.6
2018-12-27T07:44:07.191Z,1.6
2018-12-27T07:45:08.574Z,1.7
2018-12-27T07:46:11.075Z,1.7
2018-12-27T07:47:11.298Z,1.7
2018-12-27T07:48:12.679Z,1.7
2018-12-27T07:49:14.055Z,1.8
2018-12-27T07:50:15.431Z,1.8
2018-12-27T07:51:16.812Z,1.7
2018-12-27T07:52:18.193Z,1.8
2018-12-27T07:53:19.575Z,1.8
2018-12-27T07:54:20.953Z,1.8
2018-12-27T07:55:22.338Z,1.7
2018-12-27T07:56:23.782Z,1.7
2018-12-27T07:57:25.102Z,1.8
2018-12-27T07:58:26.480Z,1.8
2018-12-27T07:59:27.869Z,1.8
2018-12-27T08:00:29.261Z,1.8
2018-12-27T08:01:30.640Z,1.8
2018-12-27T08:02:32.020Z,1.8
2018-12-27T08:03:33.401Z,1.8
2018-12-27T08:04:34.783Z,1.8
2018-12-27T08:05:36.164Z,1.8
2018-12-27T08:06:37.546Z,1.7
2018-12-27T08:07:38.925Z,1.8
2018-12-27T08:08:40.376Z,1.8
2018-12-27T08:09:41.766Z,1.7
2018-12-27T08:10:43.145Z,1.8
2018-12-27T08:11:44.527Z,1.9
2018-12-27T08:12:45.908Z,1.9
2018-12-27T08:13:47.292Z,1.9
2018-12-27T08:14:48.673Z,1.9
2018-12-27T08:15:50.054Z,1.9
2018-12-27T08:16:51.435Z,1.8
2018-12-27T08:17:52.812Z,1.9
2018-12-27T08:18:54.194Z,2.0
2018-12-27T08:19:55.575Z,2.0
2018-12-27T08:20:56.955Z,2.0
2018-12-27T08:21:58.338Z,2.1
2018-12-27T08:22:59.718Z,1.9
2018-12-27T08:24:01.104Z,2.0
2018-12-27T08:25:02.481Z,2.1
2018-12-27T08:26:03.867Z,2.1
2018-12-27T08:27:05.248Z,2.2
2018-12-27T08:28:06.627Z,2.1
2018-12-27T08:29:08.015Z,2.2
2018-12-27T08:30:09.394Z,2.2
2018-12-27T08:31:10.775Z,2.2
2018-12-27T08:32:12.155Z,2.3
2018-12-27T08:33:13.536Z,2.2
2018-12-27T08:34:14.913Z,2.3
2018-12-27T08:35:16.298Z,2.3
2018-12-27T08:36:17.679Z,2.3
2018-12-27T08:37:19.059Z,2.3
2018-12-27T08:38:20.442Z,2.4
2018-12-27T08:39:21.821Z,2.4
2018-12-27T08:40:23.202Z,2.5
2018-12-27T08:41:24.584Z,2.4
2018-12-27T08:42:25.963Z,2.5
2018-12-27T08:43:27.347Z,2.5
2018-12-27T08:44:28.724Z,2.6
2018-12-27T08:45:30.103Z,2.5
2018-12-27T08:46:31.483Z,2.6
2018-12-27T08:47:32.934Z,2.6
2018-12-27T08:48:34.209Z,2.6
2018-12-27T08:49:35.595Z,2.6
2018-12-27T08:50:36.975Z,2.6
2018-12-27T08:51:38.361Z,2.6
2018-12-27T08:52:39.741Z,2.7
2018-12-27T08:53:41.124Z,2.6
2018-12-27T08:54:42.508Z,2.8
2018-12-27T08:55:43.898Z,2.8
2018-12-27T08:56:45.281Z,2.8
2018-12-27T08:57:46.717Z,2.8
2018-12-27T08:58:48.186Z,2.9
2018-12-27T08:59:49.567Z,2.9
2018-12-27T09:00:50.948Z,2.9
2018-12-27T09:01:52.332Z,3.1
2018-12-27T09:02:53.715Z,3.0
2018-12-27T09:03:55.098Z,3.1
2018-12-27T09:04:56.477Z,3.1
2018-12-27T09:05:57.862Z,3.2
2018-12-27T09:06:59.244Z,3.2
2018-12-27T09:08:00.624Z,3.2
2018-12-27T09:09:02.006Z,3.2
2018-12-27T09:10:03.388Z,3.2
2018-12-27T09:11:04.775Z,3.3
2018-12-27T09:12:06.161Z,3.4
2018-12-27T09:13:07.542Z,3.4
2018-12-27T09:14:08.929Z,3.4
2018-12-27T09:15:10.309Z,3.3
2018-12-27T09:16:11.691Z,3.4
2018-12-27T09:17:13.073Z,3.5
2018-12-27T09:18:14.456Z,3.5
2018-12-27T09:19:15.839Z,3.6
2018-12-27T09:20:17.219Z,3.5
2018-12-27T09:21:18.603Z,3.6
2018-12-27T09:22:19.952Z,3.6
2018-12-27T09:23:21.334Z,3.6
2018-12-27T09:24:22.715Z,3.7
2018-12-27T09:25:24.102Z,3.7
2018-12-27T09:26:25.484Z,3.8
2018-12-27T09:27:26.866Z,3.8
2018-12-27T09:28:28.251Z,3.8
2018-12-27T09:29:29.627Z,3.8
2018-12-27T09:30:31.016Z,3.9
2018-12-27T09:31:32.398Z,4.0
2018-12-27T09:32:33.785Z,4.0
2018-12-27T09:33:35.167Z,4.1
2018-12-27T09:34:36.549Z,4.1
2018-12-27T09:35:37.944Z,4.1
2018-12-27T09:36:39.327Z,4.1
2018-12-27T09:37:40.708Z,4.1
2018-12-27T09:38:42.092Z,4.3
2018-12-27T09:39:43.474Z,4.2
2018-12-27T09:40:44.862Z,4.3
2018-12-27T09:41:46.241Z,4.3
2018-12-27T09:42:47.621Z,4.4
2018-12-27T09:43:49.001Z,4.4
2018-12-27T09:44:50.389Z,4.4
2018-12-27T09:45:51.770Z,4.5
2018-12-27T09:46:53.156Z,4.6
2018-12-27T09:47:54.541Z,4.6
2018-12-27T09:48:56.058Z,4.7
2018-12-27T09:49:57.477Z,4.7
2018-12-27T09:50:58.860Z,4.7
2018-12-27T09:52:02.301Z,4.8
2018-12-27T09:53:01.590Z,4.8
2018-12-27T09:54:02.972Z,4.8
2018-12-27T09:55:04.355Z,4.8
2018-12-27T09:56:05.735Z,4.7
2018-12-27T09:57:07.117Z,4.8
2018-12-27T09:58:08.497Z,4.9
2018-12-27T09:59:09.878Z,5.0
2018-12-27T10:00:11.263Z,4.9
2018-12-27T10:01:12.647Z,5.0
2018-12-27T10:02:14.030Z,5.0
2018-12-27T10:03:15.412Z,5.1
2018-12-27T10:04:16.797Z,5.1
2018-12-27T10:05:18.179Z,5.1
2018-12-27T10:06:19.561Z,5.2
2018-12-27T10:07:20.946Z,5.3
2018-12-27T10:08:22.329Z,5.4
2018-12-27T10:09:23.712Z,5.5
2018-12-27T10:10:25.099Z,5.6
2018-12-27T10:11:26.480Z,5.6
2018-12-27T10:12:27.862Z,5.6
2018-12-27T10:13:29.245Z,5.6
2018-12-27T10:14:30.629Z,5.8
2018-12-27T10:15:32.015Z,5.8
2018-12-27T10:16:33.404Z,5.8
2018-12-27T10:17:34.787Z,6.0
2018-12-27T10:18:36.169Z,6.1
2018-12-27T10:19:37.553Z,6.0
2018-12-27T10:20:38.939Z,6.2
2018-12-27T10:21:40.322Z,6.2
2018-12-27T10:22:41.704Z,6.2
2018-12-27T10:23:43.093Z,6.3
2018-12-27T10:24:44.478Z,6.3
2018-12-27T10:25:45.864Z,6.3
2018-12-27T10:26:47.245Z,6.3
2018-12-27T10:27:48.631Z,6.4
2018-12-27T10:28:50.020Z,6.4
2018-12-27T10:29:51.400Z,6.6
2018-12-27T10:30:59.595Z,6.5
2018-12-27T10:31:54.133Z,6.7
2018-12-27T10:32:55.518Z,6.6
2018-12-27T10:33:56.901Z,6.7
2018-12-27T10:34:58.284Z,6.7
2018-12-27T10:35:59.671Z,6.8
2018-12-27T10:37:01.057Z,6.7
2018-12-27T10:38:02.457Z,6.9
2018-12-27T10:39:03.830Z,6.9
2018-12-27T10:40:05.237Z,6.9
2018-12-27T10:41:06.623Z,6.9
2018-12-27T10:42:08.105Z,6.9
2018-12-27T10:43:09.491Z,6.9
2018-12-27T10:44:10.873Z,6.9
2018-12-27T10:45:12.258Z,6.9
2018-12-27T10:46:13.642Z,6.9
2018-12-27T10:47:15.025Z,7.0
2018-12-27T10:48:16.408Z,7.0
2018-12-27T10:49:17.794Z,7.0
2018-12-27T10:50:19.176Z,7.0
2018-12-27T10:51:20.560Z,7.1
2018-12-27T10:52:21.946Z,7.2
2018-12-27T10:53:23.327Z,7.1
2018-12-27T10:54:24.712Z,7.3
2018-12-27T10:55:26.101Z,7.2
2018-12-27T10:56:27.484Z,7.4
2018-12-27T10:57:28.914Z,7.2
2018-12-27T10:58:30.259Z,7.3
2018-12-27T10:59:31.645Z,7.3
2018-12-27T11:00:33.027Z,7.3
2018-12-27T11:01:34.410Z,7.2
2018-12-27T11:02:35.796Z,7.3
2018-12-27T11:03:37.175Z,7.4
2018-12-27T11:04:38.564Z,7.4
2018-12-27T11:05:39.946Z,7.5
2018-12-27T11:06:41.332Z,7.4
2018-12-27T11:07:42.714Z,7.4
2018-12-27T11:08:44.100Z,7.4
2018-12-27T11:09:45.485Z,7.4
2018-12-27T11:10:46.867Z,7.3
2018-12-27T11:11:48.254Z,7.4
2018-12-27T11:12:49.639Z,7.3
2018-12-27T11:13:51.024Z,7.2
2018-12-27T11:14:52.405Z,7.2
2018-12-27T11:15:53.793Z,7.2
2018-12-27T11:16:55.178Z,7.2
2018-12-27T11:17:56.561Z,7.3
2018-12-27T11:18:57.943Z,7.4
2018-12-27T11:19:59.331Z,7.4
2018-12-27T11:21:00.715Z,7.4
2018-12-27T11:22:02.100Z,7.4
2018-12-27T11:23:03.483Z,7.4
2018-12-27T11:24:04.864Z,7.4
2018-12-27T11:25:06.250Z,7.4
2018-12-27T11:26:07.634Z,7.4
2018-12-27T11:27:09.020Z,7.4
2018-12-27T11:28:10.580Z,7.3
2018-12-27T11:29:11.963Z,7.4
2018-12-27T11:30:13.345Z,7.4
2018-12-27T11:31:14.728Z,7.4
2018-12-27T11:32:16.113Z,7.5
2018-12-27T11:33:17.503Z,7.6
2018-12-27T11:34:18.893Z,7.7
2018-12-27T11:35:20.286Z,7.8
2018-12-27T11:36:21.669Z,7.9
2018-12-27T11:37:23.055Z,7.8
2018-12-27T11:38:24.445Z,7.9
2018-12-27T11:39:25.826Z,8.0
2018-12-27T11:40:27.215Z,8.0
2018-12-27T11:41:28.606Z,8.1
2018-12-27T11:42:29.989Z,8.0
2018-12-27T11:43:31.372Z,8.1
2018-12-27T11:44:32.847Z,8.1
2018-12-27T11:45:34.237Z,8.1
2018-12-27T11:46:35.620Z,8.2
2018-12-27T11:47:37.006Z,8.3
2018-12-27T11:48:38.393Z,8.3
2018-12-27T11:49:39.776Z,8.3
2018-12-27T11:50:41.159Z,8.4
2018-12-27T11:51:42.543Z,8.4
2018-12-27T11:52:43.930Z,8.4
2018-12-27T11:53:45.317Z,8.4
2018-12-27T11:54:46.709Z,8.5
2018-12-27T11:55:48.086Z,8.4
2018-12-27T11:56:49.478Z,8.5
2018-12-27T11:57:50.872Z,8.5
2018-12-27T11:58:52.258Z,8.5
2018-12-27T11:59:53.638Z,8.5
2018-12-27T12:00:55.038Z,8.6
2018-12-27T12:01:56.422Z,8.5
2018-12-27T12:02:58.840Z,8.5
2018-12-27T12:03:59.169Z,8.5
2018-12-27T12:05:00.549Z,8.5
2018-12-27T12:06:03.463Z,8.5
2018-12-27T12:07:03.282Z,8.5
2018-12-27T12:08:04.671Z,8.5
2018-12-27T12:09:06.057Z,8.5
2018-12-27T12:10:07.445Z,8.5
2018-12-27T12:11:08.832Z,8.6
2018-12-27T12:12:10.216Z,8.5
2018-12-27T12:13:11.600Z,8.7
2018-12-27T12:14:12.985Z,8.5
2018-12-27T12:15:14.402Z,8.6
2018-12-27T12:16:15.787Z,8.7
2018-12-27T12:17:17.357Z,8.6
2018-12-27T12:18:18.766Z,8.7
2018-12-27T12:19:20.151Z,8.8
2018-12-27T12:20:21.540Z,8.8
2018-12-27T12:21:22.924Z,8.9
2018-12-27T12:22:24.310Z,9.0
2018-12-27T12:23:25.698Z,9.0
2018-12-27T12:24:27.086Z,9.0
2018-12-27T12:25:28.481Z,9.1
2018-12-27T12:26:29.869Z,9.1
2018-12-27T12:27:31.247Z,9.1
2018-12-27T12:28:32.631Z,9.3
2018-12-27T12:29:34.019Z,9.2
2018-12-27T12:30:35.405Z,9.3
2018-12-27T12:31:36.788Z,9.3
2018-12-27T12:32:38.176Z,9.3
2018-12-27T12:33:39.560Z,9.3
2018-12-27T12:34:40.949Z,9.4
2018-12-27T12:35:42.333Z,9.4
2018-12-27T12:36:43.714Z,9.4
2018-12-27T12:37:45.100Z,9.5
2018-12-27T12:38:46.488Z,9.5
2018-12-27T12:39:47.877Z,9.4
2018-12-27T12:40:49.256Z,9.5
2018-12-27T12:41:50.646Z,9.4
2018-12-27T12:42:52.026Z,9.5
2018-12-27T12:43:53.479Z,9.6
2018-12-27T12:44:54.803Z,9.6
2018-12-27T12:45:56.191Z,9.5
2018-12-27T12:46:57.577Z,9.8
2018-12-27T12:47:58.962Z,9.8
2018-12-27T12:49:00.347Z,10.0
2018-12-27T12:50:01.758Z,10.2
2018-12-27T12:51:03.123Z,10.3
2018-12-27T12:52:04.511Z,10.3
2018-12-27T12:53:05.900Z,10.4
2018-12-27T12:54:07.291Z,10.4
2018-12-27T12:55:08.679Z,10.3
2018-12-27T12:56:10.069Z,10.3
2018-12-27T12:57:11.459Z,10.1
2018-12-27T12:58:12.850Z,10.0
2018-12-27T12:59:14.230Z,9.9
2018-12-27T13:00:15.620Z,9.8
2018-12-27T13:01:17.010Z,9.8
2018-12-27T13:02:18.394Z,9.8
2018-12-27T13:03:19.777Z,9.7
2018-12-27T13:04:21.161Z,9.6
2018-12-27T13:05:22.548Z,9.7
2018-12-27T13:06:24.052Z,9.6
2018-12-27T13:07:25.457Z,9.5
2018-12-27T13:08:26.845Z,9.3
2018-12-27T13:09:28.225Z,9.3
2018-12-27T13:10:29.612Z,9.2
2018-12-27T13:11:30.997Z,9.1
2018-12-27T13:12:32.382Z,9.0
2018-12-27T13:13:33.769Z,8.9
2018-12-27T13:14:35.157Z,8.8
2018-12-27T13:15:36.542Z,8.8
2018-12-27T13:16:37.926Z,8.9
2018-12-27T13:17:40.855Z,8.8
2018-12-27T13:18:47.108Z,8.8
2018-12-27T13:19:42.013Z,8.8
2018-12-27T13:20:43.405Z,8.7
2018-12-27T13:21:44.791Z,8.7
2018-12-27T13:22:46.179Z,8.6
2018-12-27T13:23:47.563Z,8.6
2018-12-27T13:24:48.949Z,8.6
2018-12-27T13:25:50.334Z,8.5
2018-12-27T13:26:51.716Z,8.5
2018-12-27T13:27:53.099Z,8.5
2018-12-27T13:28:54.488Z,8.5
2018-12-27T13:29:55.872Z,8.6
2018-12-27T13:30:57.256Z,8.6
2018-12-27T13:31:58.639Z,8.6
2018-12-27T13:33:00.025Z,8.6
2018-12-27T13:34:01.409Z,8.6
2018-12-27T13:35:02.794Z,8.5
2018-12-27T13:36:04.189Z,8.6
2018-12-27T13:37:05.574Z,8.6
2018-12-27T13:38:06.962Z,8.7
2018-12-27T13:39:08.344Z,8.6
2018-12-27T13:40:09.747Z,8.6
2018-12-27T13:41:11.131Z,8.7
2018-12-27T13:42:12.512Z,8.7
2018-12-27T13:43:13.897Z,8.5
2018-12-27T13:44:15.407Z,8.6
2018-12-27T13:45:16.795Z,8.6
2018-12-27T13:46:18.176Z,8.5
2018-12-27T13:47:19.560Z,8.6
2018-12-27T13:48:20.949Z,8.5
2018-12-27T13:49:22.337Z,8.5
2018-12-27T13:50:23.723Z,8.5
2018-12-27T13:51:25.110Z,8.5
2018-12-27T13:52:26.495Z,8.6
2018-12-27T13:53:27.877Z,8.5
2018-12-27T13:54:29.268Z,8.5
2018-12-27T13:55:30.741Z,8.3
2018-12-27T13:56:32.163Z,8.3
2018-12-27T13:57:33.543Z,8.4
2018-12-27T13:58:34.932Z,8.4
2018-12-27T13:59:36.312Z,8.4
2018-12-27T14:00:37.697Z,8.4
2018-12-27T14:01:39.085Z,8.4
2018-12-27T14:02:40.469Z,8.3
2018-12-27T14:03:42.116Z,8.2
2018-12-27T14:04:43.488Z,8.2